Time;durP1;ratioP1;P1;durP2;ratioP2;P2;SDS_P1;SDS_P2;PMS_P1;PMS_P2;Temp;Humidity;BMP_temperature;BMP_pressure;BME280_temperature;BME280_humidity;BME280_pressure;Samples;Min_cycle;Max_cycle;Signal;HPM_P1;HPM_P2
2022/05/15 00:01:50;;;;;;;11.63;6.35;;;;;;;;;;5053436;28;20074;-38
2022/05/15 00:04:15;;;;;;;14.15;5.97;;;;;;;;;;5052013;28;20483;-38
2022/05/15 00:06:41;;;;;;;15.48;5.93;;;;;;;;;;5051784;28;20057;-38
2022/05/15 00:09:06;;;;;;;10.35;5.75;;;;;;;;;;5051653;28;20043;-38
2022/05/15 00:11:32;;;;;;;11.23;5.72;;;;;;;;;;5053049;28;20124;-38
2022/05/15 00:13:57;;;;;;;11.57;5.82;;;;;;;;;;5051475;28;20452;-36
2022/05/15 00:16:23;;;;;;;12.23;5.82;;;;;;;;;;5052872;28;20021;-36
2022/05/15 00:18:49;;;;;;;12.18;5.95;;;;;;;;;;5053077;28;20021;-36
2022/05/15 00:21:15;;;;;;;9.10;5.20;;;;;;;;;;5052907;28;20017;-36
2022/05/15 00:23:40;;;;;;;7.65;5.45;;;;;;;;;;5051566;28;20032;-38
2022/05/15 00:26:06;;;;;;;10.93;5.50;;;;;;;;;;5052793;28;20021;-38
2022/05/15 00:28:31;;;;;;;11.35;5.57;;;;;;;;;;5052408;28;20468;-38
2022/05/15 00:30:57;;;;;;;13.77;5.20;;;;;;;;;;5051633;28;20021;-38
2022/05/15 00:33:22;;;;;;;12.10;5.00;;;;;;;;;;5051378;28;20055;-38
2022/05/15 00:35:47;;;;;;;19.27;5.72;;;;;;;;;;5053136;28;20043;-38
2022/05/15 00:38:13;;;;;;;8.52;4.68;;;;;;;;;;5052519;28;20017;-39
2022/05/15 00:40:40;;;;;;;13.05;5.20;;;;;;;;;;5052636;28;20478;-36
2022/05/15 00:43:10;;;;;;;12.90;5.47;;;;;;;;;;5052456;28;20522;-39
2022/05/15 00:45:35;;;;;;;13.15;5.88;;;;;;;;;;5051317;28;20029;-38
2022/05/15 00:48:01;;;;;;;8.70;4.60;;;;;;;;;;5052405;28;20032;-38
2022/05/15 00:50:29;;;;;;;8.98;4.72;;;;;;;;;;5051385;28;20025;-38
2022/05/15 00:52:58;;;;;;;12.02;4.97;;;;;;;;;;5051222;28;20025;-36
2022/05/15 00:55:27;;;;;;;7.57;5.05;;;;;;;;;;5052402;28;20025;-37
2022/05/15 00:57:55;;;;;;;14.27;4.90;;;;;;;;;;5051109;28;20059;-37
2022/05/15 01:00:23;;;;;;;10.00;4.78;;;;;;;;;;5052565;28;20051;-37
2022/05/15 01:02:55;;;;;;;7.93;4.70;;;;;;;;;;5051332;28;20375;-37
2022/05/15 01:05:21;;;;;;;10.07;5.07;;;;;;;;;;5052256;28;20041;-37
2022/05/15 01:07:46;;;;;;;8.65;4.40;;;;;;;;;;5051102;28;20027;-37
2022/05/15 01:10:12;;;;;;;7.10;5.07;;;;;;;;;;5055033;28;20029;-37
2022/05/15 01:12:40;;;;;;;8.68;4.40;;;;;;;;;;5055046;28;20371;-37
2022/05/15 01:15:06;;;;;;;11.07;5.60;;;;;;;;;;5056486;28;20036;-37
2022/05/15 01:17:31;;;;;;;7.53;5.13;;;;;;;;;;5056516;28;20021;-37
2022/05/15 01:20:01;;;;;;;9.82;4.85;;;;;;;;;;5054908;28;20491;-37
2022/05/15 01:22:26;;;;;;;12.73;5.43;;;;;;;;;;5056240;28;20108;-37
2022/05/15 01:24:52;;;;;;;10.57;5.78;;;;;;;;;;5038038;28;20102;-37
2022/05/15 01:27:17;;;;;;;7.75;5.45;;;;;;;;;;5056216;28;20017;-37
2022/05/15 01:29:44;;;;;;;8.18;5.30;;;;;;;;;;5054921;28;20036;-37
2022/05/15 01:32:10;;;;;;;7.55;5.32;;;;;;;;;;5055893;28;20457;-37
2022/05/15 01:34:36;;;;;;;12.02;5.10;;;;;;;;;;5056083;28;20017;-37
2022/05/15 01:37:01;;;;;;;17.63;6.75;;;;;;;;;;5055797;28;20029;-37
2022/05/15 01:39:28;;;;;;;10.35;6.20;;;;;;;;;;5054475;28;20032;-38
2022/05/15 01:41:53;;;;;;;7.50;5.97;;;;;;;;;;5055800;28;20086;-37
2022/05/15 01:44:18;;;;;;;8.35;5.63;;;;;;;;;;5055894;28;20448;-37
2022/05/15 01:46:44;;;;;;;9.68;6.28;;;;;;;;;;5055612;28;20017;-37
2022/05/15 01:49:09;;;;;;;8.93;5.50;;;;;;;;;;5055720;28;20033;-37
2022/05/15 01:51:37;;;;;;;12.30;6.05;;;;;;;;;;5054343;28;20064;-37
2022/05/15 01:54:03;;;;;;;17.67;7.55;;;;;;;;;;5054284;28;20021;-37
2022/05/15 01:56:29;;;;;;;13.85;7.47;;;;;;;;;;5054040;28;20020;-37
2022/05/15 01:58:54;;;;;;;22.88;7.10;;;;;;;;;;5055661;28;20017;-37
2022/05/15 02:01:19;;;;;;;21.55;7.72;;;;;;;;;;5055565;28;20020;-37
2022/05/15 02:03:45;;;;;;;24.95;6.85;;;;;;;;;;5055435;28;20013;-37
2022/05/15 02:06:10;;;;;;;11.77;7.53;;;;;;;;;;5053970;28;20057;-38
2022/05/15 02:08:36;;;;;;;13.60;6.85;;;;;;;;;;5055442;28;20040;-37
2022/05/15 02:11:01;;;;;;;13.43;6.65;;;;;;;;;;5055107;28;20029;-37
2022/05/15 02:13:27;;;;;;;7.03;5.93;;;;;;;;;;5053843;28;20476;-37
2022/05/15 02:15:52;;;;;;;8.68;6.28;;;;;;;;;;5055551;28;20029;-37
2022/05/15 02:18:18;;;;;;;10.27;6.13;;;;;;;;;;5055237;28;20058;-37
2022/05/15 02:20:43;;;;;;;8.50;5.88;;;;;;;;;;5052612;28;20021;-37
2022/05/15 02:23:08;;;;;;;10.27;6.95;;;;;;;;;;5054859;28;20033;-37
2022/05/15 02:25:34;;;;;;;9.60;6.00;;;;;;;;;;5053458;28;20039;-38
2022/05/15 02:28:00;;;;;;;10.63;5.70;;;;;;;;;;5054263;28;20071;-37
2022/05/15 02:30:25;;;;;;;9.57;5.75;;;;;;;;;;5053116;28;20053;-37
2022/05/15 02:32:51;;;;;;;11.98;5.95;;;;;;;;;;5054714;28;20021;-37
2022/05/15 02:35:16;;;;;;;14.80;5.93;;;;;;;;;;5053495;28;20025;-37
2022/05/15 02:37:44;;;;;;;14.43;6.50;;;;;;;;;;5054759;28;20025;-37
2022/05/15 02:40:10;;;;;;;7.75;5.40;;;;;;;;;;5054659;28;20013;-38
2022/05/15 02:42:36;;;;;;;12.10;6.65;;;;;;;;;;5054534;28;20017;-37
2022/05/15 02:45:01;;;;;;;14.30;6.28;;;;;;;;;;5055082;28;20468;-37
2022/05/15 02:47:26;;;;;;;11.93;6.10;;;;;;;;;;5054526;28;20043;-37
2022/05/15 02:52:35;;;;;;;10.32;6.80;;;;;;;;;;5054390;28;20043;-37
2022/05/15 02:55:02;;;;;;;13.52;6.25;;;;;;;;;;5054325;28;20492;-37
2022/05/15 02:57:27;;;;;;;15.65;6.70;;;;;;;;;;5053347;28;20021;-37
2022/05/15 02:59:53;;;;;;;12.60;6.57;;;;;;;;;;5054466;28;20028;-37
2022/05/15 03:02:18;;;;;;;11.55;6.90;;;;;;;;;;5054535;28;20448;-37
2022/05/15 03:04:43;;;;;;;13.25;7.10;;;;;;;;;;5054443;28;20013;-37
2022/05/15 03:07:09;;;;;;;13.85;6.43;;;;;;;;;;5053815;28;20090;-37
2022/05/15 03:09:34;;;;;;;13.65;6.32;;;;;;;;;;5052694;28;20126;-37
2022/05/15 03:11:59;;;;;;;16.30;7.95;;;;;;;;;;5054231;28;20508;-38
2022/05/15 03:14:25;;;;;;;18.05;7.50;;;;;;;;;;5054198;28;20032;-38
2022/05/15 03:16:50;;;;;;;19.48;7.82;;;;;;;;;;5054084;28;20025;-38
2022/05/15 03:19:15;;;;;;;14.88;7.97;;;;;;;;;;5053998;28;20050;-38
2022/05/15 03:21:41;;;;;;;15.23;7.85;;;;;;;;;;5052516;28;20032;-38
2022/05/15 03:24:06;;;;;;;18.80;8.38;;;;;;;;;;5053573;28;20023;-38
2022/05/15 03:26:35;;;;;;;16.83;7.97;;;;;;;;;;5052827;28;20175;-38
2022/05/15 03:29:01;;;;;;;16.27;7.65;;;;;;;;;;5053736;28;20079;-38
2022/05/15 03:31:26;;;;;;;12.40;6.53;;;;;;;;;;5053427;28;20134;-38
2022/05/15 03:33:51;;;;;;;12.18;7.13;;;;;;;;;;5052561;28;20028;-38
2022/05/15 03:36:17;;;;;;;13.07;7.88;;;;;;;;;;5053723;28;20092;-38
2022/05/15 03:38:44;;;;;;;14.10;7.65;;;;;;;;;;5053521;28;20144;-38
2022/05/15 03:41:09;;;;;;;14.68;6.95;;;;;;;;;;5052426;28;20468;-38
2022/05/15 03:43:35;;;;;;;16.55;7.10;;;;;;;;;;5053776;28;20024;-38
2022/05/15 03:46:00;;;;;;;14.45;6.80;;;;;;;;;;5052220;28;20115;-38
2022/05/15 03:48:26;;;;;;;15.65;7.10;;;;;;;;;;5053367;28;20082;-38
2022/05/15 03:50:51;;;;;;;23.73;7.45;;;;;;;;;;5053520;28;20025;-38
2022/05/15 03:53:16;;;;;;;22.52;7.75;;;;;;;;;;5053239;28;20047;-38
2022/05/15 03:55:42;;;;;;;18.90;7.50;;;;;;;;;;5051877;28;20024;-38
2022/05/15 03:58:07;;;;;;;14.07;7.75;;;;;;;;;;5052144;28;20365;-38
2022/05/15 04:00:34;;;;;;;14.00;8.35;;;;;;;;;;5051980;28;20029;-38
2022/05/15 04:02:59;;;;;;;15.98;7.70;;;;;;;;;;5053119;28;20052;-38
2022/05/15 04:05:25;;;;;;;14.98;7.97;;;;;;;;;;5052832;28;20087;-38
2022/05/15 04:07:50;;;;;;;14.27;6.97;;;;;;;;;;5052850;28;20021;-39
2022/05/15 04:10:17;;;;;;;13.10;6.53;;;;;;;;;;5052938;28;20453;-38
2022/05/15 04:12:43;;;;;;;10.60;6.38;;;;;;;;;;5053176;28;20147;-38
2022/05/15 04:15:09;;;;;;;13.15;5.55;;;;;;;;;;5051803;28;20025;-38
2022/05/15 04:17:39;;;;;;;8.20;5.07;;;;;;;;;;5051669;28;20020;-38
2022/05/15 04:20:05;;;;;;;10.25;5.07;;;;;;;;;;5052889;28;20013;-38
2022/05/15 04:22:30;;;;;;;9.77;5.47;;;;;;;;;;5051475;28;20032;-38
2022/05/15 04:24:56;;;;;;;7.15;4.65;;;;;;;;;;5051745;28;20028;-38
2022/05/15 04:27:21;;;;;;;6.07;4.30;;;;;;;;;;5051448;28;20045;-39
2022/05/15 04:29:46;;;;;;;7.63;4.22;;;;;;;;;;5052951;28;20029;-38
2022/05/15 04:32:12;;;;;;;8.80;4.28;;;;;;;;;;5051508;28;20074;-38
2022/05/15 04:34:37;;;;;;;10.68;4.47;;;;;;;;;;5051489;28;20036;-38
2022/05/15 04:37:02;;;;;;;7.38;4.20;;;;;;;;;;5051394;28;20088;-38
2022/05/15 04:39:32;;;;;;;10.43;4.43;;;;;;;;;;5052522;28;20031;-37
2022/05/15 04:42:00;;;;;;;7.95;4.00;;;;;;;;;;5052746;28;20024;-38
2022/05/15 04:44:26;;;;;;;7.80;3.67;;;;;;;;;;5052184;28;20017;-37
2022/05/15 04:46:51;;;;;;;5.70;3.80;;;;;;;;;;5052475;28;20600;-37
2022/05/15 04:49:17;;;;;;;4.80;3.53;;;;;;;;;;5051269;28;20082;-38
2022/05/15 04:51:42;;;;;;;11.45;4.65;;;;;;;;;;5052911;28;20029;-37
2022/05/15 04:54:07;;;;;;;6.18;3.30;;;;;;;;;;5052368;28;20108;-37
2022/05/15 04:56:33;;;;;;;10.15;3.55;;;;;;;;;;5052449;28;20052;-38
2022/05/15 04:58:58;;;;;;;8.15;3.72;;;;;;;;;;5051265;28;20052;-37
2022/05/15 05:01:25;;;;;;;5.90;3.00;;;;;;;;;;5051222;28;20025;-38
2022/05/15 05:03:52;;;;;;;8.95;2.88;;;;;;;;;;5052316;28;20388;-38
2022/05/15 05:06:17;;;;;;;4.55;3.08;;;;;;;;;;5052538;28;20045;-37
2022/05/15 05:08:42;;;;;;;4.05;2.60;;;;;;;;;;5052297;28;20033;-38
2022/05/15 05:11:08;;;;;;;7.97;3.03;;;;;;;;;;5052632;28;20024;-37
2022/05/15 05:13:33;;;;;;;8.73;2.70;;;;;;;;;;5051069;28;20332;-38
2022/05/15 05:15:58;;;;;;;6.03;2.67;;;;;;;;;;5052516;28;20104;-37
2022/05/15 05:18:24;;;;;;;5.93;3.08;;;;;;;;;;5052609;28;20460;-38
2022/05/15 05:20:49;;;;;;;7.32;2.60;;;;;;;;;;5052602;28;20120;-38
2022/05/15 05:23:14;;;;;;;9.73;2.60;;;;;;;;;;5052189;28;20047;-38
2022/05/15 05:25:40;;;;;;;7.90;2.78;;;;;;;;;;5052108;28;20024;-38
2022/05/15 05:28:05;;;;;;;5.72;3.10;;;;;;;;;;5052287;28;20033;-38
2022/05/15 05:30:31;;;;;;;2.45;2.22;;;;;;;;;;5052131;28;20029;-38
2022/05/15 05:32:57;;;;;;;2.40;2.20;;;;;;;;;;5052172;28;20021;-38
2022/05/15 05:35:24;;;;;;;5.15;1.92;;;;;;;;;;5050863;28;20025;-38
2022/05/15 05:37:50;;;;;;;7.57;2.47;;;;;;;;;;5051919;28;20018;-38
2022/05/15 05:40:15;;;;;;;5.95;2.60;;;;;;;;;;5052628;28;20036;-37
2022/05/15 05:42:41;;;;;;;4.70;2.50;;;;;;;;;;5050909;28;20047;-38
2022/05/15 05:45:07;;;;;;;5.20;2.75;;;;;;;;;;5052014;28;20073;-38
2022/05/15 05:47:32;;;;;;;9.23;2.10;;;;;;;;;;5051811;28;20017;-38
2022/05/15 05:49:58;;;;;;;5.43;2.13;;;;;;;;;;5052202;28;20045;-38
2022/05/15 05:52:24;;;;;;;3.38;2.13;;;;;;;;;;5051952;28;20376;-38
2022/05/15 05:54:49;;;;;;;6.57;2.30;;;;;;;;;;5053611;28;20021;-38
2022/05/15 05:57:15;;;;;;;6.15;2.15;;;;;;;;;;5055469;28;20021;-38
2022/05/15 05:59:40;;;;;;;7.23;2.07;;;;;;;;;;5055674;28;20543;-38
2022/05/15 06:02:06;;;;;;;6.53;2.38;;;;;;;;;;5055379;28;20238;-38
2022/05/15 06:04:44;;;;;;;4.32;2.15;;;;;;;;;;5055340;28;20025;-38
2022/05/15 06:07:14;;;;;;;4.55;2.17;;;;;;;;;;5054988;28;20056;-38
2022/05/15 06:09:42;;;;;;;4.38;2.35;;;;;;;;;;5054075;28;20040;-38
2022/05/15 06:12:08;;;;;;;6.00;2.67;;;;;;;;;;5055444;28;20063;-38
2022/05/15 06:14:33;;;;;;;5.13;2.10;;;;;;;;;;5055326;28;20021;-38
2022/05/15 06:16:58;;;;;;;4.97;2.30;;;;;;;;;;5055525;28;20028;-38
2022/05/15 06:19:24;;;;;;;5.85;2.50;;;;;;;;;;5055113;28;20017;-39
2022/05/15 06:21:49;;;;;;;8.00;2.70;;;;;;;;;;5054913;28;20022;-38
2022/05/15 06:24:14;;;;;;;13.10;2.42;;;;;;;;;;5053698;28;20033;-38
2022/05/15 06:26:40;;;;;;;5.68;2.20;;;;;;;;;;5053854;28;20057;-38
2022/05/15 06:29:05;;;;;;;5.90;2.22;;;;;;;;;;5053626;28;20392;-38
2022/05/15 06:31:31;;;;;;;8.20;2.88;;;;;;;;;;5053646;28;20032;-38
2022/05/15 06:33:56;;;;;;;5.68;2.75;;;;;;;;;;5055061;28;20056;-38
2022/05/15 06:36:22;;;;;;;3.90;2.00;;;;;;;;;;5054638;28;20423;-39
2022/05/15 06:38:47;;;;;;;4.35;2.40;;;;;;;;;;5054954;28;20025;-38
2022/05/15 06:41:12;;;;;;;6.30;2.30;;;;;;;;;;5053600;28;20052;-37
2022/05/15 06:43:38;;;;;;;3.53;2.27;;;;;;;;;;5054846;28;20021;-38
2022/05/15 06:46:03;;;;;;;8.38;2.35;;;;;;;;;;5054832;28;20254;-38
2022/05/15 06:48:28;;;;;;;8.98;3.47;;;;;;;;;;5054514;28;20037;-38
2022/05/15 06:50:54;;;;;;;7.05;2.28;;;;;;;;;;5054508;28;20025;-38
2022/05/15 06:53:19;;;;;;;3.22;2.08;;;;;;;;;;5054369;28;20028;-38
2022/05/15 06:58:29;;;;;;;4.68;2.30;;;;;;;;;;5054640;28;20039;-38
2022/05/15 07:00:54;;;;;;;5.82;2.40;;;;;;;;;;5053047;28;20063;-38
2022/05/15 07:03:20;;;;;;;5.78;1.75;;;;;;;;;;5054605;28;20052;-38
2022/05/15 07:05:45;;;;;;;3.43;2.20;;;;;;;;;;5051500;28;20052;-38
2022/05/15 07:08:11;;;;;;;7.53;1.97;;;;;;;;;;5054220;28;20282;-38
2022/05/15 07:10:37;;;;;;;3.63;2.00;;;;;;;;;;5054288;28;20257;-38
2022/05/15 07:13:02;;;;;;;3.28;2.03;;;;;;;;;;5054196;28;20017;-38
2022/05/15 07:15:28;;;;;;;3.15;1.88;;;;;;;;;;5054298;28;20047;-38
2022/05/15 07:17:53;;;;;;;5.38;2.22;;;;;;;;;;5054107;28;20025;-38
2022/05/15 07:20:19;;;;;;;3.53;2.00;;;;;;;;;;5053722;28;20133;-38
2022/05/15 07:22:44;;;;;;;4.95;2.08;;;;;;;;;;5053426;28;20075;-39
2022/05/15 07:25:10;;;;;;;6.35;1.85;;;;;;;;;;5034372;28;20449;-38
2022/05/15 07:27:36;;;;;;;5.90;2.03;;;;;;;;;;5033894;28;20032;-38
2022/05/15 07:30:01;;;;;;;3.00;1.58;;;;;;;;;;5033857;28;20037;-38
2022/05/15 07:32:27;;;;;;;4.45;1.58;;;;;;;;;;5033843;28;20013;-38
2022/05/15 07:34:52;;;;;;;7.53;2.10;;;;;;;;;;5033601;28;20056;-39
2022/05/15 07:37:18;;;;;;;5.40;1.60;;;;;;;;;;5033746;28;20531;-38
2022/05/15 07:39:43;;;;;;;3.17;1.75;;;;;;;;;;5032579;28;20025;-38
2022/05/15 07:42:09;;;;;;;3.50;1.70;;;;;;;;;;5033673;28;20029;-38
2022/05/15 07:44:34;;;;;;;3.58;1.60;;;;;;;;;;5032393;28;20025;-38
2022/05/15 07:47:00;;;;;;;4.05;1.80;;;;;;;;;;5033585;28;20100;-38
2022/05/15 07:49:25;;;;;;;2.95;1.65;;;;;;;;;;5033448;28;20041;-38
2022/05/15 07:51:50;;;;;;;4.93;1.50;;;;;;;;;;5032085;28;20029;-38
2022/05/15 07:54:17;;;;;;;2.35;1.52;;;;;;;;;;5033620;28;20026;-38
2022/05/15 07:56:42;;;;;;;5.65;2.05;;;;;;;;;;5032247;28;20022;-38
2022/05/15 07:59:07;;;;;;;4.40;1.80;;;;;;;;;;5033262;28;20024;-38
2022/05/15 08:01:34;;;;;;;3.10;1.80;;;;;;;;;;5033619;28;20247;-38
2022/05/15 08:03:59;;;;;;;3.80;1.55;;;;;;;;;;5033392;28;20028;-38
2022/05/15 08:09:09;;;;;;;4.32;1.60;;;;;;;;;;5032978;28;20488;-38
2022/05/15 08:11:36;;;;;;;4.78;1.25;;;;;;;;;;5033500;28;20017;-38
2022/05/15 08:14:02;;;;;;;5.18;1.52;;;;;;;;;;5033212;28;20032;-38
2022/05/15 08:16:28;;;;;;;3.33;1.45;;;;;;;;;;5033137;28;20079;-38
2022/05/15 08:24:21;;;;;;;5.47;1.42;;;;;;;;;;5032894;28;20388;-38
2022/05/15 08:26:47;;;;;;;7.13;1.60;;;;;;;;;;5032933;28;20025;-38
2022/05/15 08:29:12;;;;;;;6.10;1.83;;;;;;;;;;5032813;28;20052;-38
2022/05/15 08:31:39;;;;;;;3.50;1.50;;;;;;;;;;5032740;28;20027;-38
2022/05/15 08:34:05;;;;;;;6.07;1.60;;;;;;;;;;5033030;28;20029;-38
2022/05/15 08:36:30;;;;;;;3.42;1.73;;;;;;;;;;5032675;28;20104;-38
2022/05/15 08:38:55;;;;;;;7.32;1.83;;;;;;;;;;5031436;28;20080;-38
2022/05/15 08:41:21;;;;;;;7.93;1.73;;;;;;;;;;5032648;28;20037;-39
2022/05/15 08:43:46;;;;;;;4.13;1.83;;;;;;;;;;5032723;28;20022;-38
2022/05/15 08:46:17;;;;;;;4.90;1.80;;;;;;;;;;5032456;28;20013;-38
2022/05/15 08:48:43;;;;;;;5.97;2.42;;;;;;;;;;5032491;28;20428;-38
2022/05/15 08:51:10;;;;;;;3.28;1.60;;;;;;;;;;5032723;28;20021;-38
2022/05/15 08:53:37;;;;;;;7.75;1.50;;;;;;;;;;5032751;28;20376;-38
2022/05/15 08:56:07;;;;;;;3.38;1.52;;;;;;;;;;5032889;28;20469;-38
2022/05/15 08:58:50;;;;;;;4.18;1.63;;;;;;;;;;5032433;28;20025;-38
2022/05/15 09:01:19;;;;;;;5.28;1.88;;;;;;;;;;5032754;28;20076;-38
2022/05/15 09:03:44;;;;;;;2.00;1.30;;;;;;;;;;5031388;28;20112;-38
2022/05/15 09:06:19;;;;;;;2.23;1.47;;;;;;;;;;5031278;28;20136;-38
2022/05/15 09:08:47;;;;;;;4.45;2.00;;;;;;;;;;5032189;28;20634;-38
2022/05/15 09:11:14;;;;;;;6.63;1.40;;;;;;;;;;5031285;28;20060;-39
2022/05/15 09:13:42;;;;;;;3.95;1.58;;;;;;;;;;5030564;28;20036;-38
2022/05/15 09:16:21;;;;;;;6.07;1.42;;;;;;;;;;5032824;28;20100;-38
2022/05/15 09:18:46;;;;;;;5.70;1.55;;;;;;;;;;5031280;28;20025;-38
2022/05/15 09:21:13;;;;;;;3.23;1.27;;;;;;;;;;5032058;28;20464;-37
2022/05/15 09:23:39;;;;;;;3.53;1.40;;;;;;;;;;5030861;28;20156;-37
2022/05/15 09:26:14;;;;;;;3.72;1.50;;;;;;;;;;5030927;28;20104;-37
2022/05/15 09:28:44;;;;;;;4.25;1.42;;;;;;;;;;5031074;28;20061;-37
2022/05/15 09:31:19;;;;;;;4.28;1.40;;;;;;;;;;5036217;28;20488;-38
2022/05/15 09:34:04;;;;;;;3.75;1.30;;;;;;;;;;5034815;28;20017;-37
2022/05/15 09:36:30;;;;;;;4.18;1.60;;;;;;;;;;5034667;28;20056;-37
2022/05/15 09:39:14;;;;;;;7.20;1.45;;;;;;;;;;5036314;28;20021;-37
2022/05/15 09:44:25;;;;;;;8.18;1.60;;;;;;;;;;5035782;28;20033;-37
2022/05/15 09:47:01;;;;;;;2.45;1.33;;;;;;;;;;5035788;28;20461;-37
2022/05/15 09:49:28;;;;;;;4.28;1.40;;;;;;;;;;5035921;28;20029;-37
2022/05/15 09:51:55;;;;;;;3.25;1.65;;;;;;;;;;5034490;28;20022;-37
2022/05/15 09:54:47;;;;;;;4.20;1.40;;;;;;;;;;5035828;28;20095;-38
2022/05/15 09:57:28;;;;;;;4.90;1.33;;;;;;;;;;5033013;28;20038;-37
2022/05/15 09:59:59;;;;;;;6.18;1.38;;;;;;;;;;5035745;28;20026;-37
2022/05/15 10:02:26;;;;;;;4.60;1.38;;;;;;;;;;5034373;28;20030;-37
2022/05/15 10:04:52;;;;;;;3.10;1.38;;;;;;;;;;5034247;28;20033;-38
2022/05/15 10:07:30;;;;;;;4.28;1.40;;;;;;;;;;5035194;28;20053;-38
2022/05/15 10:10:08;;;;;;;5.38;1.83;;;;;;;;;;5033990;28;20080;-38
2022/05/15 10:12:34;;;;;;;2.72;1.40;;;;;;;;;;5034202;28;20072;-38
2022/05/15 10:15:02;;;;;;;3.10;1.15;;;;;;;;;;5035424;28;20030;-38
2022/05/15 10:17:28;;;;;;;3.38;1.60;;;;;;;;;;5034088;28;20029;-38
2022/05/15 10:20:07;;;;;;;4.07;1.45;;;;;;;;;;5033861;28;20021;-38
2022/05/15 10:22:40;;;;;;;3.15;1.60;;;;;;;;;;5035044;28;20116;-37
2022/05/15 10:25:16;;;;;;;4.75;1.42;;;;;;;;;;5035285;28;20070;-38
2022/05/15 10:27:43;;;;;;;5.03;1.30;;;;;;;;;;5035058;28;20083;-38
2022/05/15 10:30:15;;;;;;;3.25;1.35;;;;;;;;;;5034977;28;20045;-38
2022/05/15 10:32:44;;;;;;;2.97;1.30;;;;;;;;;;5034826;28;20036;-38
2022/05/15 10:35:10;;;;;;;6.30;1.63;;;;;;;;;;5035174;28;20527;-38
2022/05/15 10:37:44;;;;;;;4.47;1.23;;;;;;;;;;5034930;28;20026;-38
2022/05/15 10:40:15;;;;;;;4.38;1.80;;;;;;;;;;5034822;28;20022;-38
2022/05/15 10:42:50;;;;;;;3.40;1.40;;;;;;;;;;5032816;28;20026;-38
2022/05/15 10:45:15;;;;;;;2.05;1.20;;;;;;;;;;5033247;28;20025;-39
2022/05/15 10:48:00;;;;;;;2.33;1.55;;;;;;;;;;5033487;28;20491;-38
2022/05/15 10:50:25;;;;;;;6.00;1.45;;;;;;;;;;5033428;28;20032;-37
2022/05/15 10:52:51;;;;;;;6.43;1.70;;;;;;;;;;5034688;28;20025;-37
2022/05/15 10:58:07;;;;;;;4.65;1.40;;;;;;;;;;5034320;28;20396;-37
2022/05/15 11:00:47;;;;;;;4.25;1.40;;;;;;;;;;5034508;28;20025;-38
2022/05/15 11:03:15;;;;;;;5.43;1.20;;;;;;;;;;5034420;28;20037;-37
2022/05/15 11:05:56;;;;;;;3.50;1.35;;;;;;;;;;5034185;28;20567;-37
2022/05/15 11:08:40;;;;;;;3.78;1.48;;;;;;;;;;5032849;28;20112;-37
2022/05/15 11:11:20;;;;;;;4.03;1.60;;;;;;;;;;5034148;28;20028;-38
2022/05/15 11:13:46;;;;;;;2.85;1.50;;;;;;;;;;5034150;28;20384;-37
2022/05/15 11:16:19;;;;;;;4.78;1.70;;;;;;;;;;5034131;28;20096;-38
2022/05/15 11:18:53;;;;;;;3.58;1.40;;;;;;;;;;5033867;28;20044;-38
2022/05/15 11:21:30;;;;;;;6.95;1.42;;;;;;;;;;5032958;28;20029;-38
2022/05/15 11:24:07;;;;;;;7.70;1.40;;;;;;;;;;5034133;28;20488;-37
2022/05/15 11:26:37;;;;;;;2.88;1.20;;;;;;;;;;5034043;28;20416;-37
2022/05/15 11:29:05;;;;;;;7.93;1.38;;;;;;;;;;5032470;28;20037;-38
2022/05/15 11:31:34;;;;;;;4.75;1.50;;;;;;;;;;5033834;28;20071;-38
2022/05/15 11:34:04;;;;;;;3.40;1.33;;;;;;;;;;5033689;28;20033;-37
2022/05/15 11:36:33;;;;;;;3.72;1.20;;;;;;;;;;5033876;28;20458;-38
2022/05/15 11:39:05;;;;;;;4.72;1.65;;;;;;;;;;5033705;28;20033;-37
2022/05/15 11:41:39;;;;;;;5.05;1.50;;;;;;;;;;5033689;28;20124;-37
2022/05/15 11:44:05;;;;;;;5.47;1.40;;;;;;;;;;5033526;28;20025;-38
2022/05/15 11:46:50;;;;;;;8.98;1.50;;;;;;;;;;5034017;28;20495;-38
2022/05/15 11:49:34;;;;;;;4.88;1.70;;;;;;;;;;5032197;28;20473;-37
2022/05/15 11:52:03;;;;;;;4.13;1.40;;;;;;;;;;5031866;28;20025;-36
2022/05/15 11:54:30;;;;;;;4.72;1.38;;;;;;;;;;5033879;28;20037;-38
2022/05/15 11:56:56;;;;;;;2.90;1.40;;;;;;;;;;5033517;28;20048;-37
2022/05/15 11:59:29;;;;;;;3.15;1.23;;;;;;;;;;5032101;28;20075;-37
2022/05/15 12:01:56;;;;;;;6.45;1.77;;;;;;;;;;5033569;28;20104;-37
2022/05/15 12:04:42;;;;;;;5.30;1.45;;;;;;;;;;5031996;28;20025;-37
2022/05/15 12:07:07;;;;;;;1.80;1.08;;;;;;;;;;5032453;28;20053;-37
2022/05/15 12:09:43;;;;;;;2.75;1.60;;;;;;;;;;5033294;28;20033;-37
2022/05/15 12:12:23;;;;;;;5.70;1.50;;;;;;;;;;5033174;28;20156;-38
2022/05/15 12:15:07;;;;;;;5.55;1.50;;;;;;;;;;5033272;28;20029;-37
2022/05/15 12:17:35;;;;;;;6.28;1.80;;;;;;;;;;5033403;28;20456;-37
2022/05/15 12:20:04;;;;;;;5.03;1.73;;;;;;;;;;5032015;28;20380;-37
2022/05/15 12:22:35;;;;;;;5.05;1.70;;;;;;;;;;5031969;28;20030;-37
2022/05/15 12:25:08;;;;;;;3.97;1.95;;;;;;;;;;5031814;28;20025;-37
2022/05/15 12:27:35;;;;;;;7.00;1.90;;;;;;;;;;5032778;28;20044;-38
2022/05/15 12:30:09;;;;;;;5.18;1.77;;;;;;;;;;5032793;28;20389;-37
2022/05/15 12:32:50;;;;;;;3.65;1.25;;;;;;;;;;5033193;28;20079;-37
2022/05/15 12:35:33;;;;;;;5.60;1.40;;;;;;;;;;5031581;28;20029;-37
2022/05/15 12:38:06;;;;;;;4.32;1.20;;;;;;;;;;5032863;28;20021;-39
2022/05/15 12:40:33;;;;;;;4.28;1.42;;;;;;;;;;5032932;28;20037;-37
2022/05/15 12:42:59;;;;;;;11.25;2.00;;;;;;;;;;5032776;28;20013;-37
2022/05/15 12:45:25;;;;;;;6.50;1.50;;;;;;;;;;5032852;28;20025;-37
2022/05/15 12:48:01;;;;;;;3.67;1.90;;;;;;;;;;5032674;28;20029;-37
2022/05/15 12:50:27;;;;;;;5.70;1.23;;;;;;;;;;5032937;28;20112;-37
2022/05/15 12:52:57;;;;;;;9.98;1.48;;;;;;;;;;5032572;28;20148;-37
2022/05/15 12:55:27;;;;;;;4.32;1.70;;;;;;;;;;5032538;28;20115;-37
2022/05/15 12:57:54;;;;;;;4.50;1.17;;;;;;;;;;5032689;28;20472;-37
2022/05/15 13:00:23;;;;;;;3.65;1.65;;;;;;;;;;5032915;28;20029;-37
2022/05/15 13:02:49;;;;;;;5.38;1.48;;;;;;;;;;5031286;28;20017;-37
2022/05/15 13:05:22;;;;;;;7.85;1.63;;;;;;;;;;5033418;28;20040;-37
2022/05/15 13:07:52;;;;;;;2.97;1.30;;;;;;;;;;5036472;28;20013;-37
2022/05/15 13:10:21;;;;;;;4.70;1.50;;;;;;;;;;5036615;28;20113;-37
2022/05/15 13:12:54;;;;;;;7.25;1.52;;;;;;;;;;5036694;28;20033;-37
2022/05/15 13:15:22;;;;;;;4.55;1.67;;;;;;;;;;5035195;28;20112;-37
2022/05/15 13:17:48;;;;;;;3.72;1.35;;;;;;;;;;5035118;28;20433;-37
2022/05/15 13:20:15;;;;;;;4.78;1.65;;;;;;;;;;5036354;28;20022;-37
2022/05/15 13:22:41;;;;;;;5.47;1.38;;;;;;;;;;5036759;28;20022;-36
2022/05/15 13:25:09;;;;;;;3.63;1.30;;;;;;;;;;5035119;28;20087;-37
2022/05/15 13:27:37;;;;;;;2.50;1.33;;;;;;;;;;5035065;28;20021;-37
2022/05/15 13:30:02;;;;;;;7.15;1.73;;;;;;;;;;5036222;28;20112;-37
2022/05/15 13:32:28;;;;;;;6.55;1.60;;;;;;;;;;5036070;28;20057;-37
2022/05/15 13:34:53;;;;;;;5.07;1.85;;;;;;;;;;5035985;28;20054;-37
2022/05/15 13:37:35;;;;;;;4.30;1.75;;;;;;;;;;5035022;28;20066;-37
2022/05/15 13:45:31;;;;;;;2.40;1.20;;;;;;;;;;5036177;28;20484;-37
2022/05/15 13:48:00;;;;;;;5.18;1.40;;;;;;;;;;5034479;28;20025;-37
2022/05/15 13:50:25;;;;;;;;;;;;;;;;;;5035083;28;20061;-37
2022/05/15 13:52:51;;;;;;;4.97;1.53;;;;;;;;;;5035837;28;19952;-37
2022/05/15 13:55:35;;;;;;;2.50;1.10;;;;;;;;;;5035638;28;20105;-38
2022/05/15 13:58:01;;;;;;;3.88;1.55;;;;;;;;;;5036134;28;20028;-37
2022/05/15 14:00:28;;;;;;;5.57;1.70;;;;;;;;;;5035787;28;20017;-37
2022/05/15 14:03:01;;;;;;;4.00;1.38;;;;;;;;;;5017947;28;20028;-37
2022/05/15 14:05:28;;;;;;;8.50;1.77;;;;;;;;;;5034003;28;20496;-37
2022/05/15 14:08:06;;;;;;;4.93;1.63;;;;;;;;;;5035402;28;20022;-38
2022/05/15 14:10:33;;;;;;;3.58;1.50;;;;;;;;;;5035566;28;20037;-37
2022/05/15 14:13:02;;;;;;;4.00;1.40;;;;;;;;;;5034173;28;20021;-38
2022/05/15 14:15:34;;;;;;;4.65;1.42;;;;;;;;;;5035019;28;20036;-37
2022/05/15 14:18:01;;;;;;;7.88;1.35;;;;;;;;;;5035246;28;20108;-37
2022/05/15 14:20:31;;;;;;;3.50;1.65;;;;;;;;;;5035114;28;20475;-38
2022/05/15 14:22:58;;;;;;;4.07;1.20;;;;;;;;;;5034122;28;20029;-37
2022/05/15 14:25:23;;;;;;;5.50;1.48;;;;;;;;;;5033882;28;20045;-37
2022/05/15 14:27:48;;;;;;;7.20;1.33;;;;;;;;;;5035316;28;20056;-37
2022/05/15 14:30:14;;;;;;;3.72;1.30;;;;;;;;;;5035170;28;20040;-37
2022/05/15 14:32:40;;;;;;;3.65;1.08;;;;;;;;;;5033792;28;20026;-38
2022/05/15 14:35:07;;;;;;;5.00;1.23;;;;;;;;;;5035229;28;20029;-39
2022/05/15 14:37:32;;;;;;;4.30;1.38;;;;;;;;;;5034984;28;20108;-37
2022/05/15 14:39:57;;;;;;;6.07;1.45;;;;;;;;;;5034935;28;20049;-37
2022/05/15 14:42:23;;;;;;;5.72;1.98;;;;;;;;;;5034971;28;20013;-37
2022/05/15 14:44:49;;;;;;;4.03;1.80;;;;;;;;;;5033499;28;20113;-37
2022/05/15 14:47:16;;;;;;;5.25;1.35;;;;;;;;;;5034618;28;20099;-38
2022/05/15 14:49:42;;;;;;;4.80;1.48;;;;;;;;;;5034707;28;20112;-37
2022/05/15 14:52:09;;;;;;;3.33;1.33;;;;;;;;;;5034621;28;20017;-37
2022/05/15 14:54:36;;;;;;;6.38;1.55;;;;;;;;;;5033560;28;20052;-37
2022/05/15 14:57:03;;;;;;;15.95;1.60;;;;;;;;;;5034776;28;20022;-37
2022/05/15 14:59:28;;;;;;;5.47;1.23;;;;;;;;;;5033489;28;20036;-37
2022/05/15 15:01:54;;;;;;;6.50;1.45;;;;;;;;;;5034210;28;20021;-37
2022/05/15 15:04:19;;;;;;;3.90;1.20;;;;;;;;;;5033186;28;20021;-38
2022/05/15 15:06:45;;;;;;;5.47;1.60;;;;;;;;;;5034572;28;20046;-37
2022/05/15 15:09:11;;;;;;;6.35;1.60;;;;;;;;;;5034457;28;20037;-37